createdAt,value
2019-03-25T00:00:08.419Z,3.40
2019-03-25T00:02:37.467Z,3.30
2019-03-25T00:05:07.246Z,3.20
2019-03-25T00:07:36.206Z,3.33
2019-03-25T00:10:05.917Z,3.17
2019-03-25T00:12:34.894Z,3.40
2019-03-25T00:15:06.414Z,4.10
2019-03-25T00:17:35.361Z,3.37
2019-03-25T00:20:05.876Z,4.00
2019-03-25T00:22:34.834Z,3.60
2019-03-25T00:25:04.678Z,3.57
2019-03-25T00:27:33.643Z,3.30
2019-03-25T00:30:02.687Z,2.97
2019-03-25T00:32:31.658Z,3.37
2019-03-25T00:35:00.658Z,3.13
2019-03-25T00:37:29.601Z,2.80
2019-03-25T00:39:58.588Z,3.20
2019-03-25T00:42:29.028Z,3.33
2019-03-25T00:44:58.039Z,3.23
2019-03-25T00:47:27.003Z,3.27
2019-03-25T00:49:55.970Z,3.60
2019-03-25T00:52:24.937Z,3.60
2019-03-25T00:54:53.926Z,2.87
2019-03-25T00:57:22.887Z,3.67
2019-03-25T00:59:52.018Z,3.07
2019-03-25T01:02:20.991Z,4.33
2019-03-25T01:04:50.029Z,2.90
2019-03-25T01:07:19.056Z,3.87
2019-03-25T01:09:48.030Z,3.50
2019-03-25T01:12:16.991Z,3.13
2019-03-25T01:14:46.031Z,3.20
2019-03-25T01:17:15.063Z,3.80
2019-03-25T01:19:44.047Z,3.43
2019-03-25T01:22:12.995Z,3.33
2019-03-25T01:24:41.958Z,3.27
2019-03-25T01:27:10.923Z,3.10
2019-03-25T01:29:39.889Z,3.57
2019-03-25T01:32:08.850Z,3.87
2019-03-25T01:34:37.807Z,3.40
2019-03-25T01:37:06.866Z,3.70
2019-03-25T01:39:35.818Z,4.43
2019-03-25T01:42:04.862Z,3.57
2019-03-25T01:44:33.813Z,5.10
2019-03-25T01:47:02.817Z,3.90
2019-03-25T01:49:31.780Z,3.60
2019-03-25T01:52:00.755Z,4.00
2019-03-25T01:54:29.746Z,3.70
2019-03-25T01:56:58.732Z,3.73
2019-03-25T01:59:27.682Z,3.53
2019-03-25T02:01:56.662Z,4.50
2019-03-25T02:04:25.641Z,3.70
2019-03-25T02:06:54.602Z,3.83
2019-03-25T02:09:23.566Z,4.10
2019-03-25T02:11:52.557Z,4.47
2019-03-25T02:14:21.515Z,4.47
2019-03-25T02:16:50.494Z,3.23
2019-03-25T02:19:19.463Z,4.07
2019-03-25T02:21:48.422Z,4.30
2019-03-25T02:24:17.375Z,4.13
2019-03-25T02:26:46.349Z,4.47
2019-03-25T02:29:15.324Z,4.93
2019-03-25T02:31:44.297Z,5.37
2019-03-25T02:34:13.260Z,4.20
2019-03-25T02:36:42.236Z,4.63
2019-03-25T02:39:11.179Z,4.60
2019-03-25T02:41:40.166Z,4.00
2019-03-25T02:44:09.119Z,4.10
2019-03-25T02:46:38.080Z,3.63
2019-03-25T02:49:07.031Z,4.37
2019-03-25T02:51:36.023Z,5.03
2019-03-25T02:54:05.035Z,4.53
2019-03-25T02:56:34.004Z,4.00
2019-03-25T02:59:02.955Z,4.77
2019-03-25T03:01:31.947Z,4.50
2019-03-25T03:04:00.898Z,4.50
2019-03-25T03:06:29.883Z,4.43
2019-03-25T03:08:58.832Z,5.07
2019-03-25T03:11:27.806Z,4.73
2019-03-25T03:13:56.771Z,5.13
2019-03-25T03:16:25.744Z,4.20
2019-03-25T03:18:54.716Z,4.30
2019-03-25T03:21:23.690Z,3.93
2019-03-25T03:23:52.729Z,4.17
2019-03-25T03:26:21.707Z,4.13
2019-03-25T03:28:50.678Z,4.20
2019-03-25T03:31:19.675Z,4.23
2019-03-25T03:33:48.615Z,3.97
2019-03-25T03:36:17.599Z,4.33
2019-03-25T03:38:46.554Z,4.93
2019-03-25T03:41:15.540Z,4.40
2019-03-25T03:43:44.503Z,3.70
2019-03-25T03:46:13.557Z,4.07
2019-03-25T03:48:42.502Z,4.17
2019-03-25T03:51:11.628Z,5.43
2019-03-25T03:53:40.924Z,4.43
2019-03-25T03:56:13.456Z,6.17
2019-03-25T03:58:42.564Z,4.40
2019-03-25T04:01:11.619Z,3.97
2019-03-25T04:03:40.590Z,4.53
2019-03-25T04:06:09.585Z,5.03
2019-03-25T04:08:38.544Z,4.40
2019-03-25T04:11:07.517Z,4.03
2019-03-25T04:13:36.487Z,4.43
2019-03-25T04:16:05.456Z,4.43
2019-03-25T04:18:34.412Z,4.53
2019-03-25T04:21:03.383Z,4.57
2019-03-25T04:23:32.350Z,4.77
2019-03-25T04:26:01.397Z,5.07
2019-03-25T04:28:30.347Z,5.50
2019-03-25T04:30:59.329Z,4.27
2019-03-25T04:33:28.304Z,5.00
2019-03-25T04:35:57.265Z,4.97
2019-03-25T04:38:26.215Z,5.07
2019-03-25T04:40:55.226Z,4.90
2019-03-25T04:43:24.189Z,4.27
2019-03-25T04:45:53.150Z,5.30
2019-03-25T04:48:22.191Z,4.63
2019-03-25T04:50:51.143Z,4.80
2019-03-25T04:53:20.111Z,4.10
2019-03-25T04:55:49.134Z,4.73
2019-03-25T04:58:18.112Z,4.60
2019-03-25T05:00:47.086Z,4.10
2019-03-25T05:03:16.068Z,4.60
2019-03-25T05:05:45.030Z,4.47
2019-03-25T05:08:14.009Z,4.50
2019-03-25T05:10:42.968Z,4.83
2019-03-25T05:13:11.938Z,4.70
2019-03-25T05:15:40.911Z,4.83
2019-03-25T05:18:09.901Z,4.37
2019-03-25T05:20:38.858Z,4.93
2019-03-25T05:23:07.911Z,4.67
2019-03-25T05:25:36.883Z,6.23
2019-03-25T05:28:05.903Z,4.90
2019-03-25T05:30:34.900Z,4.50
2019-03-25T05:33:03.944Z,5.30
2019-03-25T05:35:32.898Z,5.53
2019-03-25T05:38:02.870Z,4.97
2019-03-25T05:40:31.842Z,4.83
2019-03-25T05:43:00.795Z,5.40
2019-03-25T05:45:29.862Z,5.70
2019-03-25T05:47:58.916Z,5.70
2019-03-25T05:50:27.881Z,5.77
2019-03-25T05:52:56.970Z,5.60
2019-03-25T05:55:26.090Z,5.83
2019-03-25T05:57:55.063Z,5.97
2019-03-25T06:00:25.671Z,5.53
2019-03-25T06:02:54.731Z,5.83
2019-03-25T06:05:23.719Z,5.20
2019-03-25T06:07:52.714Z,6.30
2019-03-25T06:10:21.678Z,4.77
2019-03-25T06:12:50.663Z,5.20
2019-03-25T06:15:19.625Z,5.50
2019-03-25T06:17:48.613Z,4.97
2019-03-25T06:20:17.655Z,6.30
2019-03-25T06:22:46.618Z,6.07
2019-03-25T06:25:15.662Z,5.67
2019-03-25T06:27:44.753Z,6.07
2019-03-25T06:30:14.050Z,5.23
2019-03-25T06:32:43.051Z,5.60
2019-03-25T06:35:12.153Z,6.97
2019-03-25T06:37:41.123Z,6.07
2019-03-25T06:40:11.503Z,5.20
2019-03-25T06:42:40.475Z,5.33
2019-03-25T06:45:11.093Z,4.90
2019-03-25T06:47:40.118Z,5.60
2019-03-25T06:50:09.721Z,6.87
2019-03-25T06:52:38.678Z,5.53
2019-03-25T06:55:09.200Z,6.40
2019-03-25T06:57:38.825Z,5.17
2019-03-25T07:00:10.174Z,5.50
2019-03-25T07:02:39.168Z,5.37
2019-03-25T07:05:08.596Z,6.23
2019-03-25T07:07:37.567Z,6.10
2019-03-25T07:10:07.178Z,6.27
2019-03-25T07:12:37.205Z,5.67
2019-03-25T07:15:08.031Z,5.47
2019-03-25T07:17:37.007Z,6.03
2019-03-25T07:20:08.084Z,5.37
2019-03-25T07:22:37.068Z,6.00
2019-03-25T07:25:06.586Z,6.10
2019-03-25T07:27:37.110Z,6.43
2019-03-25T07:30:07.934Z,5.93
2019-03-25T07:32:36.894Z,6.20
2019-03-25T07:35:07.029Z,6.00
2019-03-25T07:37:36.142Z,6.57
2019-03-25T07:40:07.345Z,6.33
2019-03-25T07:42:36.321Z,6.60
2019-03-25T07:45:07.771Z,6.70
2019-03-25T07:47:36.735Z,7.60
2019-03-25T07:50:07.608Z,5.70
2019-03-25T07:52:36.572Z,6.47
2019-03-25T07:55:06.678Z,5.80
2019-03-25T07:57:35.792Z,5.30
2019-03-25T08:00:14.983Z,5.33
2019-03-25T08:02:44.121Z,4.83
2019-03-25T08:05:13.385Z,4.53
2019-03-25T08:07:42.345Z,4.67
2019-03-25T08:10:11.839Z,5.17
2019-03-25T08:12:40.877Z,4.73
2019-03-25T08:15:10.713Z,5.03
2019-03-25T08:17:39.757Z,5.03
2019-03-25T08:20:10.726Z,5.13
2019-03-25T08:22:39.715Z,4.90
2019-03-25T08:25:08.803Z,4.27
2019-03-25T08:27:37.795Z,4.57
2019-03-25T08:30:11.230Z,5.83
2019-03-25T08:32:40.203Z,4.30
2019-03-25T08:35:09.393Z,4.67
2019-03-25T08:37:38.374Z,5.33
2019-03-25T08:40:07.786Z,6.27
2019-03-25T08:42:36.766Z,5.80
2019-03-25T08:45:06.877Z,4.73
2019-03-25T08:47:35.866Z,4.70
2019-03-25T08:50:07.432Z,5.90
2019-03-25T08:52:36.407Z,5.17
2019-03-25T08:55:08.567Z,5.43
2019-03-25T08:57:37.562Z,6.20
2019-03-25T09:00:09.043Z,5.83
2019-03-25T09:02:38.083Z,5.07
2019-03-25T09:05:08.791Z,5.03
2019-03-25T09:07:37.847Z,5.93
2019-03-25T09:10:10.234Z,6.20
2019-03-25T09:12:39.373Z,5.83
2019-03-25T09:15:10.271Z,5.67
2019-03-25T09:17:39.280Z,5.83
2019-03-25T09:20:10.088Z,4.70
2019-03-25T09:22:39.259Z,5.63
2019-03-25T09:25:08.679Z,5.17
2019-03-25T09:27:37.914Z,4.57
2019-03-25T09:30:08.582Z,4.80
2019-03-25T09:32:37.644Z,5.77
2019-03-25T09:35:07.951Z,4.50
2019-03-25T09:37:37.891Z,5.53
2019-03-25T09:40:08.596Z,4.30
2019-03-25T09:42:37.733Z,4.33
2019-03-25T09:45:08.259Z,3.80
2019-03-25T09:47:38.006Z,3.37
2019-03-25T09:50:07.744Z,3.53
2019-03-25T09:52:38.765Z,3.20
2019-03-25T09:55:08.657Z,3.20
2019-03-25T09:57:37.686Z,3.33
2019-03-25T10:00:11.301Z,2.97
2019-03-25T10:02:40.300Z,3.00
2019-03-25T10:05:09.510Z,3.00
2019-03-25T10:07:38.508Z,2.37
2019-03-25T10:10:08.603Z,2.80
2019-03-25T10:12:37.568Z,2.80
2019-03-25T10:15:08.393Z,3.43
2019-03-25T10:17:37.434Z,3.10
2019-03-25T10:20:07.851Z,3.33
2019-03-25T10:22:36.850Z,2.40
2019-03-25T10:25:08.053Z,2.93
2019-03-25T10:27:37.060Z,2.63
2019-03-25T10:30:12.065Z,3.63
2019-03-25T10:32:41.190Z,2.77
2019-03-25T10:35:10.401Z,2.50
2019-03-25T10:37:39.519Z,2.20
2019-03-25T10:40:10.305Z,2.80
2019-03-25T10:42:39.417Z,2.90
2019-03-25T10:45:09.640Z,2.97
2019-03-25T10:47:38.703Z,2.60
2019-03-25T10:50:07.987Z,2.80
2019-03-25T10:52:36.974Z,2.37
2019-03-25T10:55:07.883Z,2.60
2019-03-25T10:57:37.227Z,2.87
2019-03-25T11:00:11.727Z,3.40
2019-03-25T11:02:40.838Z,3.30
2019-03-25T11:05:10.564Z,2.93
2019-03-25T11:07:39.669Z,2.83
2019-03-25T11:10:09.222Z,2.97
2019-03-25T11:12:38.286Z,2.60
2019-03-25T11:15:08.783Z,3.07
2019-03-25T11:17:38.027Z,3.00
2019-03-25T11:20:08.030Z,2.63
2019-03-25T11:22:37.171Z,3.90
2019-03-25T11:25:07.467Z,2.50
2019-03-25T11:27:36.510Z,2.33
2019-03-25T11:30:09.982Z,2.77
2019-03-25T11:32:39.114Z,2.50
2019-03-25T11:35:09.411Z,2.70
2019-03-25T11:37:38.466Z,2.40
2019-03-25T11:40:08.160Z,2.33
2019-03-25T11:42:37.137Z,2.67
2019-03-25T11:45:08.234Z,2.73
2019-03-25T11:47:37.333Z,2.80
2019-03-25T11:50:07.237Z,2.83
2019-03-25T11:52:36.212Z,3.60
2019-03-25T11:55:07.323Z,3.00
2019-03-25T11:57:36.378Z,3.50
2019-03-25T12:00:07.772Z,3.50
2019-03-25T12:02:36.749Z,2.70
2019-03-25T12:05:07.768Z,3.80
2019-03-25T12:07:36.746Z,3.10
2019-03-25T12:10:06.945Z,2.90
2019-03-25T12:12:35.938Z,3.07
2019-03-25T12:15:08.432Z,3.87
2019-03-25T12:17:37.498Z,2.80
2019-03-25T12:20:07.306Z,3.10
2019-03-25T12:22:36.280Z,3.40
2019-03-25T12:25:08.279Z,2.93
2019-03-25T12:27:37.312Z,3.50
2019-03-25T12:30:11.213Z,3.20
2019-03-25T12:32:40.259Z,2.53
2019-03-25T12:35:09.478Z,2.60
2019-03-25T12:37:38.522Z,3.50
2019-03-25T12:40:08.081Z,2.73
2019-03-25T12:42:37.286Z,3.00
2019-03-25T12:45:07.324Z,2.80
2019-03-25T12:47:36.298Z,3.47
2019-03-25T12:50:07.028Z,2.93
2019-03-25T12:52:35.994Z,3.07
2019-03-25T12:55:06.013Z,3.47
2019-03-25T12:57:34.961Z,3.10
2019-03-25T13:00:06.291Z,2.77
2019-03-25T13:02:35.264Z,3.20
2019-03-25T13:05:06.109Z,2.70
2019-03-25T13:07:35.166Z,3.90
2019-03-25T13:10:06.306Z,3.00
2019-03-25T13:12:35.273Z,3.47
2019-03-25T13:15:06.755Z,2.73
2019-03-25T13:17:35.799Z,2.57
2019-03-25T13:20:06.841Z,2.57
2019-03-25T13:22:35.861Z,2.50
2019-03-25T13:25:05.738Z,2.70
2019-03-25T13:27:34.718Z,2.40
2019-03-25T13:30:05.630Z,2.30
2019-03-25T13:32:34.582Z,1.63
2019-03-25T13:35:04.649Z,1.93
2019-03-25T13:37:33.618Z,1.60
2019-03-25T13:40:03.271Z,1.67
2019-03-25T13:42:32.298Z,2.10
2019-03-25T13:45:01.344Z,1.90
2019-03-25T13:47:30.386Z,2.63
2019-03-25T13:49:59.342Z,2.20
2019-03-25T13:52:28.309Z,2.20
2019-03-25T13:54:57.355Z,1.83
2019-03-25T13:57:26.334Z,1.67
2019-03-25T14:00:03.287Z,2.83
2019-03-25T14:02:25.993Z,1.50
2019-03-25T14:04:54.988Z,1.80
2019-03-25T14:07:23.934Z,1.73
2019-03-25T14:09:52.914Z,1.90
2019-03-25T14:12:21.966Z,2.03
2019-03-25T14:14:50.931Z,2.00
2019-03-25T14:17:19.918Z,1.70
2019-03-25T14:19:48.903Z,1.83
2019-03-25T14:22:17.867Z,2.60
2019-03-25T14:24:46.881Z,1.93
2019-03-25T14:27:15.827Z,1.60
2019-03-25T14:29:44.811Z,1.80
2019-03-25T14:32:13.868Z,2.40
2019-03-25T14:34:45.030Z,2.10
2019-03-25T14:37:13.586Z,1.77
2019-03-25T14:39:42.570Z,2.00
2019-03-25T14:42:11.670Z,1.93
2019-03-25T14:44:40.642Z,2.97
2019-03-25T14:47:09.607Z,2.90
2019-03-25T14:49:38.830Z,3.23
2019-03-25T14:52:07.869Z,1.80
2019-03-25T14:54:37.381Z,2.53
2019-03-25T14:57:06.342Z,2.00
2019-03-25T14:59:35.302Z,1.90
2019-03-25T15:02:04.437Z,2.07
2019-03-25T15:04:33.397Z,2.50
2019-03-25T15:07:02.382Z,2.00
2019-03-25T15:09:31.422Z,2.60
2019-03-25T15:12:00.406Z,1.80
2019-03-25T15:14:29.374Z,2.20
2019-03-25T15:16:58.348Z,2.40
2019-03-25T15:19:27.454Z,2.93
2019-03-25T15:21:56.408Z,2.03
2019-03-25T15:24:25.390Z,1.80
2019-03-25T15:26:54.442Z,2.90
2019-03-25T15:29:23.431Z,3.17
2019-03-25T15:31:52.469Z,2.47
2019-03-25T15:34:21.465Z,2.10
2019-03-25T15:36:50.438Z,2.67
2019-03-25T15:39:19.420Z,2.43
2019-03-25T15:41:48.478Z,2.10
2019-03-25T15:44:17.461Z,2.53
2019-03-25T15:46:55.414Z,2.07
2019-03-25T15:49:17.098Z,2.50
2019-03-25T15:51:46.192Z,1.87
2019-03-25T15:54:15.222Z,2.43
2019-03-25T15:56:44.214Z,2.40
2019-03-25T15:59:13.175Z,2.20
2019-03-25T16:01:42.155Z,2.10
2019-03-25T16:04:11.287Z,2.60
2019-03-25T16:06:40.263Z,2.50
2019-03-25T16:09:09.481Z,2.67
2019-03-25T16:11:38.545Z,3.60
2019-03-25T16:14:07.531Z,1.90
2019-03-25T16:16:36.650Z,2.10
2019-03-25T16:19:05.760Z,1.90
2019-03-25T16:21:34.759Z,2.67
2019-03-25T16:24:03.711Z,2.80
2019-03-25T16:26:32.696Z,2.97
2019-03-25T16:29:01.664Z,2.80
2019-03-25T16:31:30.701Z,3.07
2019-03-25T16:33:59.756Z,2.90
2019-03-25T16:36:28.744Z,3.00
2019-03-25T16:38:57.710Z,3.27
2019-03-25T16:41:26.691Z,3.20
2019-03-25T16:43:55.673Z,2.90
2019-03-25T16:46:24.645Z,3.30
2019-03-25T16:48:55.207Z,4.20
2019-03-25T16:51:24.311Z,3.57
2019-03-25T16:53:53.271Z,3.27
2019-03-25T16:56:22.291Z,3.23
2019-03-25T16:58:51.303Z,4.37
2019-03-25T17:01:20.343Z,3.57
2019-03-25T17:03:49.329Z,3.77
2019-03-25T17:06:18.310Z,3.13
2019-03-25T17:08:47.275Z,3.50
2019-03-25T17:11:16.265Z,3.33
2019-03-25T17:13:45.365Z,3.63
2019-03-25T17:16:14.383Z,3.17
2019-03-25T17:18:43.391Z,3.50
2019-03-25T17:21:12.442Z,3.40
2019-03-25T17:23:41.406Z,3.13
2019-03-25T17:26:10.387Z,3.63
2019-03-25T17:28:39.363Z,3.50
2019-03-25T17:31:08.428Z,2.80
2019-03-25T17:33:37.378Z,3.57
2019-03-25T17:36:06.346Z,3.60
2019-03-25T17:38:35.306Z,3.60
2019-03-25T17:41:04.276Z,4.47
2019-03-25T17:43:33.344Z,2.40
2019-03-25T17:46:02.374Z,2.13
2019-03-25T17:48:31.347Z,1.70
2019-03-25T17:51:00.415Z,1.50
2019-03-25T17:53:29.399Z,1.60
2019-03-25T17:55:58.383Z,1.93
2019-03-25T17:58:27.442Z,1.97
2019-03-25T18:01:02.059Z,1.90
2019-03-25T18:03:31.050Z,2.20
2019-03-25T18:06:00.055Z,1.80
2019-03-25T18:08:29.050Z,2.00
2019-03-25T18:10:58.010Z,2.37
2019-03-25T18:13:26.987Z,2.50
2019-03-25T18:15:56.000Z,2.47
2019-03-25T18:18:25.018Z,2.30
2019-03-25T18:20:54.275Z,2.10
2019-03-25T18:23:23.315Z,3.33
2019-03-25T18:25:52.284Z,3.10
2019-03-25T18:28:21.260Z,2.87
2019-03-25T18:30:50.255Z,2.07
2019-03-25T18:33:19.215Z,2.30
2019-03-25T18:35:48.212Z,2.47
2019-03-25T18:38:17.337Z,2.63
2019-03-25T18:40:46.401Z,2.20
2019-03-25T18:43:15.354Z,2.33
2019-03-25T18:45:44.346Z,2.33
2019-03-25T18:48:13.498Z,2.50
2019-03-25T18:50:42.599Z,2.10
2019-03-25T18:53:11.577Z,2.60
2019-03-25T18:55:40.995Z,3.10
2019-03-25T18:58:10.077Z,2.70
2019-03-25T19:00:39.121Z,3.00
2019-03-25T19:03:08.192Z,3.30
2019-03-25T19:05:37.159Z,3.03
2019-03-25T19:08:06.520Z,2.60
2019-03-25T19:10:35.467Z,3.17
2019-03-25T19:13:04.466Z,2.53
2019-03-25T19:15:33.551Z,2.63
2019-03-25T19:18:02.522Z,2.40
2019-03-25T19:20:31.514Z,3.20
2019-03-25T19:23:00.549Z,2.53
2019-03-25T19:25:29.675Z,3.20
2019-03-25T19:27:58.810Z,3.00
2019-03-25T19:30:28.156Z,3.17
2019-03-25T19:32:57.194Z,3.93
2019-03-25T19:35:26.203Z,4.33
2019-03-25T19:37:55.175Z,4.50
2019-03-25T19:40:24.190Z,3.60
2019-03-25T19:42:53.162Z,4.10
2019-03-25T19:45:22.321Z,3.50
2019-03-25T19:47:51.356Z,4.00
2019-03-25T19:50:20.509Z,3.70
2019-03-25T19:52:49.559Z,5.00
2019-03-25T19:55:18.533Z,3.67
2019-03-25T19:57:47.618Z,3.60
2019-03-25T20:00:18.502Z,4.00
2019-03-25T20:02:47.557Z,4.07
2019-03-25T20:05:16.672Z,4.00
2019-03-25T20:07:45.678Z,3.70
2019-03-25T20:10:20.893Z,3.93
2019-03-25T20:12:49.914Z,3.70
2019-03-25T20:15:18.913Z,3.67
2019-03-25T20:17:48.160Z,3.90
2019-03-25T20:20:17.278Z,3.53
2019-03-25T20:22:46.334Z,3.50
2019-03-25T20:25:15.353Z,3.63
2019-03-25T20:27:44.402Z,3.20
2019-03-25T20:30:14.207Z,3.80
2019-03-25T20:32:43.297Z,3.30
2019-03-25T20:35:12.486Z,3.50
2019-03-25T20:37:41.508Z,4.10
2019-03-25T20:40:10.716Z,4.60
2019-03-25T20:42:39.717Z,3.53
2019-03-25T20:45:08.951Z,4.33
2019-03-25T20:47:37.974Z,3.77
2019-03-25T20:50:08.463Z,3.30
2019-03-25T20:52:37.596Z,5.57
2019-03-25T20:55:07.432Z,11.23
2019-03-25T20:57:36.567Z,7.37
2019-03-25T21:00:09.423Z,4.87
2019-03-25T21:02:44.788Z,4.80
2019-03-25T21:05:09.416Z,4.27
2019-03-25T21:07:38.440Z,4.00
2019-03-25T21:10:08.156Z,3.93
2019-03-25T21:12:38.579Z,4.83
2019-03-25T21:15:08.961Z,3.43
2019-03-25T21:17:37.945Z,4.03
2019-03-25T21:20:08.215Z,3.17
2019-03-25T21:22:37.318Z,3.63
2019-03-25T21:25:07.606Z,3.80
2019-03-25T21:27:36.635Z,4.53
2019-03-25T21:30:07.816Z,4.67
2019-03-25T21:32:36.916Z,4.13
2019-03-25T21:35:07.203Z,3.97
2019-03-25T21:37:36.409Z,4.87
2019-03-25T21:40:07.521Z,3.97
2019-03-25T21:42:36.552Z,4.47
2019-03-25T21:45:09.819Z,4.40
2019-03-25T21:47:39.030Z,4.20
2019-03-25T21:50:08.652Z,4.23
2019-03-25T21:52:37.677Z,3.30
2019-03-25T21:55:07.653Z,3.33
2019-03-25T21:57:36.797Z,3.20
2019-03-25T22:00:07.188Z,3.30
2019-03-25T22:02:36.147Z,2.90
2019-03-25T22:05:07.254Z,3.50
2019-03-25T22:07:36.293Z,2.73
2019-03-25T22:10:06.047Z,2.60
2019-03-25T22:12:35.429Z,3.03
2019-03-25T22:15:08.348Z,2.50
2019-03-25T22:17:38.353Z,2.50
2019-03-25T22:20:11.056Z,2.90
2019-03-25T22:22:40.103Z,2.73
2019-03-25T22:25:10.421Z,3.87
2019-03-25T22:27:39.374Z,2.60
2019-03-25T22:30:08.883Z,2.80
2019-03-25T22:32:37.957Z,2.70
2019-03-25T22:35:07.388Z,2.83
2019-03-25T22:37:36.446Z,2.83
2019-03-25T22:40:08.950Z,2.97
2019-03-25T22:42:37.995Z,3.17
2019-03-25T22:45:07.332Z,2.57
2019-03-25T22:47:36.876Z,3.10
2019-03-25T22:50:07.756Z,3.17
2019-03-25T22:52:36.792Z,3.07
2019-03-25T22:55:06.996Z,3.00
2019-03-25T22:57:35.962Z,3.30
2019-03-25T23:00:06.958Z,2.97
2019-03-25T23:02:36.078Z,3.53
2019-03-25T23:05:06.283Z,3.00
2019-03-25T23:07:35.258Z,3.00
2019-03-25T23:10:04.746Z,2.77
2019-03-25T23:12:33.725Z,4.80
2019-03-25T23:15:02.759Z,2.80
2019-03-25T23:17:31.730Z,3.13
2019-03-25T23:20:00.697Z,3.77
2019-03-25T23:22:29.667Z,2.93
2019-03-25T23:24:58.623Z,4.37
2019-03-25T23:27:27.750Z,3.17
2019-03-25T23:29:56.775Z,3.10
2019-03-25T23:32:25.804Z,3.00
2019-03-25T23:34:54.838Z,2.97
2019-03-25T23:37:23.818Z,3.20
2019-03-25T23:39:52.875Z,3.60
2019-03-25T23:42:22.011Z,3.60
2019-03-25T23:44:51.043Z,3.93
2019-03-25T23:47:20.027Z,3.43
2019-03-25T23:49:48.986Z,3.30
2019-03-25T23:52:18.159Z,3.70
2019-03-25T23:54:47.117Z,4.90
2019-03-25T23:57:16.133Z,3.80
2019-03-25T23:59:45.093Z,3.73
